Center Berlin, New York
Current Conditions -  °F | °C
As of 3:52 AM on Friday 19 Dec 2014 (Local Time) from KAQW Reporting Station
Overcast Overcast  
Wind Chill: 20°   Ceiling: 2900
Heat Index: 30°   Visibility: 10mi
Dew Point: 22°   Wind: 13mph
Humidity: 72%   Direction: 260°W
Pressure: 29.91"   Gusts: NA
Location:  42.692°N, 73.3686°W
Report Text: KAQW 190852Z AUTO 26011KT 10SM OVC029 M01/M06 A2991 RMK AO2 SLP137 T10111056 51004
Loading
Personal Weather Stations






























Interactive Weather Map New forecast layout! Learn more

10-Day Weather Forecast

Advertisements
Track Severe Weather on mobile